Etusivu
METAR-TAF:

METAR-TAF

Lentoasemat :

Sonora Municipal Airport

Sonora, Texas, Yhdysvallat

Leveyspiiri: 30-35-08N, Pituuspiiri: 100-38-54W, korkeus merenpinnasta: 652 m

Tämänhetkinen sää

Tämä raportti tehtiin 22 minuuttia sitten, kello 01.15 UTC
Tuuli 4 kn etelästä/kaakosta
Lämpötila 19°C
Kosteus 52%
Ilmanpaine 1014 hPa
selkeää

METAR: KSOA 200115Z AUTO 16004KT CLR 19/09 A2995 RMK AO2

Aika: 19:37 (01:37 UTC)

Sääennuste

Tämä raportti tehtiin 2 tuntia ja 17 minuuttia sitten, kello 23.20 UTC
Ennuste voimassa 20. päivästä klo 00 UTC - 20. päivään klo 24 UTC
Tuuli 8 kn etelästä
Näkyvyys: 10 km
selkeää
From 20. päivästä klo 1400 UTC
Tuuli 13 kn etelästä puuskistuen 21 kn:hen
Näkyvyys: 8.0 km
Pilvistä 700 ft:n korkeudessa
utua
From 20. päivästä klo 2100 UTC
Tuuli 17 kn etelästä puuskistuen 27 kn:hen
Näkyvyys: 10 km
Pilvistä 1500 ft:n korkeudessa

TAF: KSOA 192320Z 2000/2024 17008KT P6SM SKC FM201400 17013G21KT 5SM BR OVC007 FM202100 18017G27KT P6SM OVC015

Säähavainnot ja -ennusteet yli 4000 lentoasemalta (METAR- ja TAF-raportit).

Käytössä olevat sääasemat on merkitty karttaan keltaisilla ja punaisilla pisteillä.

Aseta hiiri pisteen päälle nähdäksesi sääaseman nimen.

Klikkaa sitten nähdäksesi säähavainnot ja -ennusteet.

Kartan vaihtaminen: klikkaa mustalla rastilla varustettuja vihreitä pisteitä, niin voit zoomata sisään; viivalla varustettua vihreää pistettä, niin voit zoomata ulos tai vihreitä nuolia, niin pääset viereisille kartoille.


METAR-TAF: